createdAt,value
2023-03-06T00:01:59.362Z,28.58
2023-03-06T00:05:59.768Z,28.55
2023-03-06T00:09:59.910Z,28.54
2023-03-06T00:13:59.906Z,28.52
2023-03-06T00:18:00.290Z,28.52
2023-03-06T00:22:00.397Z,28.50
2023-03-06T00:26:00.495Z,28.51
2023-03-06T00:30:00.629Z,28.47
2023-03-06T00:34:00.824Z,28.44
2023-03-06T00:38:00.935Z,28.42
2023-03-06T00:42:01.323Z,28.44
2023-03-06T00:46:01.547Z,28.41
2023-03-06T00:50:01.566Z,28.40
2023-03-06T00:54:01.748Z,28.40
2023-03-06T00:58:01.854Z,28.37
2023-03-06T01:02:02.404Z,28.35
2023-03-06T01:06:03.181Z,28.34
2023-03-06T01:10:02.579Z,28.32
2023-03-06T01:14:02.725Z,28.31
2023-03-06T01:18:02.591Z,28.30
2023-03-06T01:22:02.436Z,28.30
2023-03-06T01:26:02.529Z,28.27
2023-03-06T01:30:02.569Z,28.27
2023-03-06T01:34:02.506Z,28.24
2023-03-06T01:38:02.306Z,28.20
2023-03-06T01:42:02.230Z,28.18
2023-03-06T01:46:02.243Z,28.17
2023-03-06T01:50:02.569Z,28.17
2023-03-06T01:54:02.522Z,28.15
2023-03-06T01:58:02.398Z,28.15
2023-03-06T02:02:02.569Z,28.11
2023-03-06T02:06:02.314Z,28.10
2023-03-06T02:10:02.251Z,28.10
2023-03-06T02:14:02.192Z,28.10
2023-03-06T02:18:02.205Z,28.07
2023-03-06T02:22:02.131Z,28.08
2023-03-06T02:26:02.105Z,28.05
2023-03-06T02:30:02.021Z,28.05
2023-03-06T02:34:02.058Z,28.01
2023-03-06T02:38:01.972Z,28.01
2023-03-06T02:42:01.988Z,28.01
2023-03-06T02:46:01.923Z,27.96
2023-03-06T02:50:01.864Z,27.96
2023-03-06T02:54:01.811Z,27.94
2023-03-06T02:58:01.859Z,27.94
2023-03-06T03:02:01.742Z,27.96
2023-03-06T03:06:01.672Z,27.93
2023-03-06T03:10:01.837Z,27.90
2023-03-06T03:14:01.823Z,27.90
2023-03-06T03:18:01.931Z,27.87
2023-03-06T03:22:01.992Z,27.87
2023-03-06T03:26:02.089Z,27.86
2023-03-06T03:30:02.226Z,27.84
2023-03-06T03:34:02.426Z,27.83
2023-03-06T03:38:02.298Z,27.81
2023-03-06T03:42:02.239Z,27.80
2023-03-06T03:46:02.117Z,27.80
2023-03-06T03:50:02.227Z,27.79
2023-03-06T03:54:02.208Z,27.79
2023-03-06T03:58:02.002Z,27.75
2023-03-06T04:02:02.070Z,27.77
2023-03-06T04:06:02.127Z,27.73
2023-03-06T04:10:01.872Z,27.73
2023-03-06T04:14:02.128Z,27.71
2023-03-06T04:18:02.010Z,27.68
2023-03-06T04:22:01.776Z,27.70
2023-03-06T04:26:01.904Z,27.67
2023-03-06T04:30:01.892Z,27.68
2023-03-06T04:34:01.675Z,27.65
2023-03-06T04:38:01.789Z,27.63
2023-03-06T04:42:01.877Z,27.63
2023-03-06T04:46:01.611Z,27.63
2023-03-06T04:50:01.678Z,27.61
2023-03-06T04:54:02.041Z,27.60
2023-03-06T04:58:01.795Z,27.58
2023-03-06T05:02:02.137Z,27.58
2023-03-06T05:06:02.137Z,27.10
2023-03-06T05:10:02.120Z,26.55
2023-03-06T05:14:02.251Z,26.14
2023-03-06T05:18:02.244Z,26.01
2023-03-06T05:22:02.010Z,25.85
2023-03-06T05:26:02.162Z,25.79
2023-03-06T05:30:02.086Z,25.96
2023-03-06T05:34:01.919Z,26.40
2023-03-06T05:38:01.986Z,26.69
2023-03-06T05:42:02.009Z,26.89
2023-03-06T05:46:01.862Z,27.03
2023-03-06T05:50:01.943Z,27.13
2023-03-06T05:54:01.866Z,27.20
2023-03-06T05:58:01.898Z,27.23
2023-03-06T06:02:02.166Z,27.27
2023-03-06T06:06:02.483Z,27.27
2023-03-06T06:10:03.830Z,27.30
2023-03-06T06:14:02.636Z,27.32
2023-03-06T06:18:02.639Z,27.33
2023-03-06T06:22:02.386Z,27.32
2023-03-06T06:26:02.590Z,27.33
2023-03-06T06:30:02.478Z,27.32
2023-03-06T06:34:02.448Z,27.32
2023-03-06T06:38:02.516Z,27.32
2023-03-06T06:42:21.658Z,27.26
2023-03-06T06:46:31.480Z,27.11
2023-03-06T06:50:03.312Z,26.86
2023-03-06T06:54:02.135Z,26.34
2023-03-06T06:58:02.260Z,26.14
2023-03-06T07:02:02.017Z,26.08
2023-03-06T07:06:01.993Z,26.15
2023-03-06T07:10:01.936Z,26.21
2023-03-06T07:14:02.116Z,26.32
2023-03-06T07:18:02.261Z,26.35
2023-03-06T07:22:02.188Z,26.48
2023-03-06T07:26:02.488Z,26.42
2023-03-06T07:30:02.582Z,26.50
2023-03-06T07:34:04.830Z,26.49
2023-03-06T07:38:02.909Z,26.73
2023-03-06T07:42:03.015Z,26.55
2023-03-06T07:46:03.041Z,26.25
2023-03-06T07:50:03.318Z,26.25
2023-03-06T07:54:03.284Z,26.28
2023-03-06T07:58:03.616Z,26.29
2023-03-06T08:02:03.672Z,26.46
2023-03-06T08:06:03.612Z,26.58
2023-03-06T08:10:04.013Z,26.59
2023-03-06T08:14:04.785Z,26.71
2023-03-06T08:18:03.942Z,26.69
2023-03-06T08:22:03.935Z,26.71
2023-03-06T08:26:03.637Z,26.81
2023-03-06T08:30:03.826Z,26.85
2023-03-06T08:34:05.097Z,27.00
2023-03-06T08:38:03.582Z,27.10
2023-03-06T08:42:04.610Z,26.90
2023-03-06T08:46:03.738Z,26.78
2023-03-06T08:50:03.546Z,26.78
2023-03-06T08:54:03.691Z,26.95
2023-03-06T08:58:03.608Z,27.06
2023-03-06T09:02:03.561Z,27.13
2023-03-06T09:06:03.880Z,27.16
2023-03-06T09:10:04.043Z,27.26
2023-03-06T09:14:04.052Z,27.23
2023-03-06T09:18:04.472Z,27.33
2023-03-06T09:22:04.516Z,27.43
2023-03-06T09:26:04.568Z,27.60
2023-03-06T09:30:04.897Z,27.67
2023-03-06T09:34:04.919Z,27.47
2023-03-06T09:38:04.902Z,27.00
2023-03-06T09:42:05.170Z,26.69
2023-03-06T09:46:05.704Z,26.50
2023-03-06T09:50:05.233Z,26.42
2023-03-06T09:54:05.569Z,26.58
2023-03-06T09:58:07.353Z,26.76
2023-03-06T10:02:05.627Z,26.92
2023-03-06T10:06:05.811Z,27.20
2023-03-06T10:10:06.007Z,27.32
2023-03-06T10:14:06.461Z,27.53
2023-03-06T10:18:06.307Z,27.65
2023-03-06T10:22:06.171Z,27.81
2023-03-06T10:26:06.263Z,27.84
2023-03-06T10:30:06.210Z,27.91
2023-03-06T10:34:06.732Z,27.94
2023-03-06T10:38:06.332Z,28.15
2023-03-06T10:42:06.514Z,28.03
2023-03-06T10:46:06.672Z,27.93
2023-03-06T10:50:08.368Z,27.86
2023-03-06T10:54:06.658Z,27.88
2023-03-06T10:58:06.700Z,28.04
2023-03-06T11:02:06.516Z,28.05
2023-03-06T11:06:06.675Z,28.25
2023-03-06T11:10:14.846Z,28.37
2023-03-06T11:14:06.733Z,28.52
2023-03-06T11:18:06.935Z,28.68
2023-03-06T11:22:07.046Z,28.85
2023-03-06T11:26:07.037Z,28.95
2023-03-06T11:30:07.222Z,28.85
2023-03-06T11:34:07.403Z,28.68
2023-03-06T11:38:07.594Z,28.69
2023-03-06T11:42:07.846Z,28.67
2023-03-06T11:46:07.799Z,28.71
2023-03-06T11:50:07.938Z,28.77
2023-03-06T11:54:07.873Z,28.82
2023-03-06T11:58:07.858Z,28.85
2023-03-06T12:02:07.903Z,28.94
2023-03-06T12:06:07.799Z,28.89
2023-03-06T12:10:07.780Z,28.88
2023-03-06T12:14:07.741Z,28.85
2023-03-06T12:18:07.799Z,28.85
2023-03-06T12:22:07.643Z,28.82
2023-03-06T12:26:07.637Z,28.79
2023-03-06T12:30:07.593Z,28.82
2023-03-06T12:34:07.645Z,28.69
2023-03-06T12:38:07.852Z,28.52
2023-03-06T12:42:11.473Z,28.37
2023-03-06T12:46:09.064Z,28.24
2023-03-06T12:50:08.056Z,28.15
2023-03-06T12:54:08.110Z,27.98
2023-03-06T12:58:08.427Z,28.27
2023-03-06T13:02:08.481Z,28.34
2023-03-06T13:06:08.822Z,28.27
2023-03-06T13:10:08.577Z,28.27
2023-03-06T13:14:08.595Z,28.34
2023-03-06T13:18:08.680Z,28.42
2023-03-06T13:22:08.901Z,28.51
2023-03-06T13:26:09.131Z,28.37
2023-03-06T13:30:09.216Z,28.18
2023-03-06T13:34:09.389Z,27.98
2023-03-06T13:38:09.304Z,27.94
2023-03-06T13:42:09.331Z,27.96
2023-03-06T13:46:09.249Z,27.90
2023-03-06T13:50:09.272Z,27.90
2023-03-06T13:54:09.392Z,28.01
2023-03-06T13:58:09.356Z,28.05
2023-03-06T14:02:09.138Z,28.24
2023-03-06T14:06:09.056Z,28.34
2023-03-06T14:10:09.383Z,28.48
2023-03-06T14:14:09.014Z,28.21
2023-03-06T14:18:08.924Z,28.22
2023-03-06T14:22:09.181Z,28.12
2023-03-06T14:26:09.208Z,28.10
2023-03-06T14:30:09.314Z,28.17
2023-03-06T14:34:09.463Z,28.21
2023-03-06T14:38:09.622Z,28.44
2023-03-06T14:42:09.841Z,28.58
2023-03-06T14:46:10.149Z,28.62
2023-03-06T14:50:10.000Z,28.74
2023-03-06T14:54:10.154Z,28.69
2023-03-06T14:58:10.045Z,28.72
2023-03-06T15:02:09.959Z,28.65
2023-03-06T15:06:10.010Z,28.89
2023-03-06T15:10:09.869Z,28.83
2023-03-06T15:14:09.867Z,28.98
2023-03-06T15:18:09.783Z,28.97
2023-03-06T15:22:09.804Z,28.94
2023-03-06T15:26:09.741Z,29.06
2023-03-06T15:30:09.667Z,29.11
2023-03-06T15:34:09.663Z,29.16
2023-03-06T15:38:09.718Z,29.21
2023-03-06T15:42:09.647Z,29.21
2023-03-06T15:46:09.790Z,29.22
2023-03-06T15:50:09.791Z,29.21
2023-03-06T15:54:12.666Z,29.18
2023-03-06T15:58:09.638Z,29.19
2023-03-06T16:02:09.590Z,29.12
2023-03-06T16:06:09.619Z,29.09
2023-03-06T16:10:09.656Z,29.03
2023-03-06T16:14:09.551Z,29.01
2023-03-06T16:18:09.573Z,28.97
2023-03-06T16:22:09.410Z,28.95
2023-03-06T16:26:09.331Z,28.91
2023-03-06T16:30:09.411Z,28.87
2023-03-06T16:34:09.282Z,28.81
2023-03-06T16:38:09.265Z,28.77
2023-03-06T16:42:09.389Z,28.74
2023-03-06T16:46:09.156Z,28.69
2023-03-06T16:50:09.577Z,28.67
2023-03-06T16:54:09.391Z,28.62
2023-03-06T16:58:09.060Z,28.59
2023-03-06T17:02:09.097Z,28.54
2023-03-06T17:06:09.151Z,28.52
2023-03-06T17:10:09.399Z,28.47
2023-03-06T17:14:09.784Z,28.48
2023-03-06T17:18:09.778Z,28.42
2023-03-06T17:22:09.765Z,28.41
2023-03-06T17:26:09.510Z,28.38
2023-03-06T17:30:09.415Z,28.35
2023-03-06T17:34:09.389Z,28.34
2023-03-06T17:38:09.358Z,28.32
2023-03-06T17:42:09.288Z,28.31
2023-03-06T17:46:09.456Z,28.31
2023-03-06T17:50:09.249Z,28.28
2023-03-06T17:54:09.806Z,28.24
2023-03-06T17:58:12.099Z,28.21
2023-03-06T18:02:09.553Z,28.21
2023-03-06T18:06:09.616Z,28.21
2023-03-06T18:10:09.703Z,28.17
2023-03-06T18:14:09.432Z,28.14
2023-03-06T18:18:09.451Z,28.14
2023-03-06T18:22:09.572Z,28.12
2023-03-06T18:26:09.903Z,28.08
2023-03-06T18:30:09.355Z,28.08
2023-03-06T18:34:09.349Z,28.05
2023-03-06T18:38:09.260Z,28.03
2023-03-06T18:42:09.214Z,28.01
2023-03-06T18:46:09.268Z,27.97
2023-03-06T18:50:09.246Z,27.70
2023-03-06T18:54:09.092Z,27.32
2023-03-06T18:58:09.019Z,27.10
2023-03-06T19:02:08.934Z,26.87
2023-03-06T19:06:09.092Z,26.59
2023-03-06T19:10:09.226Z,26.53
2023-03-06T19:14:08.922Z,26.42
2023-03-06T19:18:09.071Z,26.35
2023-03-06T19:22:08.850Z,26.72
2023-03-06T19:26:09.282Z,27.07
2023-03-06T19:30:09.021Z,27.29
2023-03-06T19:34:09.081Z,27.44
2023-03-06T19:38:09.388Z,27.51
2023-03-06T19:42:09.337Z,27.58
2023-03-06T19:46:09.390Z,27.61
2023-03-06T19:50:09.493Z,27.63
2023-03-06T19:54:09.727Z,27.64
2023-03-06T19:58:10.055Z,27.65
2023-03-06T20:02:09.685Z,27.63
2023-03-06T20:06:09.818Z,27.63
2023-03-06T20:10:09.933Z,27.61
2023-03-06T20:14:10.049Z,27.60
2023-03-06T20:18:10.139Z,27.61
2023-03-06T20:22:10.297Z,27.61
2023-03-06T20:26:10.416Z,27.60
2023-03-06T20:30:10.876Z,27.58
2023-03-06T20:34:10.960Z,27.60
2023-03-06T20:38:11.103Z,27.54
2023-03-06T20:42:11.134Z,27.56
2023-03-06T20:46:11.208Z,27.54
2023-03-06T20:50:11.485Z,27.54
2023-03-06T20:54:11.575Z,27.51
2023-03-06T20:58:11.662Z,27.53
2023-03-06T21:02:12.101Z,27.51
2023-03-06T21:06:11.996Z,27.51
2023-03-06T21:10:12.133Z,27.49
2023-03-06T21:14:12.306Z,27.47
2023-03-06T21:18:12.589Z,27.46
2023-03-06T21:22:12.812Z,27.43
2023-03-06T21:26:13.153Z,27.43
2023-03-06T21:30:13.063Z,27.39
2023-03-06T21:34:13.526Z,27.37
2023-03-06T21:38:13.673Z,27.40
2023-03-06T21:42:13.790Z,27.39
2023-03-06T21:46:13.913Z,27.37
2023-03-06T21:50:13.807Z,27.33
2023-03-06T21:54:14.116Z,27.34
2023-03-06T21:58:13.980Z,27.30
2023-03-06T22:02:13.661Z,27.32
2023-03-06T22:06:13.859Z,27.29
2023-03-06T22:10:13.660Z,27.32
2023-03-06T22:14:13.819Z,27.29
2023-03-06T22:18:13.622Z,27.29
2023-03-06T22:22:13.592Z,27.29
2023-03-06T22:26:13.662Z,27.26
2023-03-06T22:30:13.494Z,27.27
2023-03-06T22:34:13.405Z,27.25
2023-03-06T22:38:13.433Z,27.25
2023-03-06T22:42:13.340Z,27.23
2023-03-06T22:46:13.317Z,27.22
2023-03-06T22:50:13.285Z,27.22
2023-03-06T22:54:13.236Z,27.17
2023-03-06T22:58:13.170Z,27.19
2023-03-06T23:02:13.158Z,27.19
2023-03-06T23:06:13.301Z,27.16
2023-03-06T23:10:13.449Z,27.19
2023-03-06T23:14:13.482Z,27.13
2023-03-06T23:18:13.453Z,27.13
2023-03-06T23:22:13.635Z,27.13
2023-03-06T23:26:13.350Z,27.13
2023-03-06T23:30:13.273Z,27.10
2023-03-06T23:34:13.768Z,27.11
2023-03-06T23:38:13.436Z,27.09
2023-03-06T23:42:13.209Z,27.09
2023-03-06T23:46:13.179Z,27.07
2023-03-06T23:50:13.106Z,27.07
2023-03-06T23:54:13.156Z,27.03
2023-03-06T23:58:13.139Z,27.05
